Dixville, New Hampshire
Current Conditions -  °F | °C
As of 1:59 PM on Wednesday 26 Nov 2014 (Local Time) from KBML Reporting Station
Light Snow Light Snow  
Wind Chill: 31°   Ceiling: 2200
Heat Index: 31°   Visibility: 1.7mi
Dew Point: 25°   Wind: 3mph
Humidity: 79%   Direction: 260°W
Pressure: 30.11"   Gusts: NA
Location:  44.8906°N, 71.3771°W
Report Text: KBML 261859Z AUTO 26003KT 1 3/4SM -SN OVC022 M01/M04 A3011 RMK AO2 P0000 T10061039
Loading
Personal Weather Stations






























Interactive Weather Map New forecast layout! Learn more

10-Day Weather Forecast

Advertisements
Track Severe Weather on mobile